Hutchinson County Airport - Borger, Texas, United States - FAA: BGD - ICAO: KBGD - IATA: BGD

 
  Longest Runway: 6,300 feet   Approach Types:    Customs Landing Rights Airport: No   Port of Entry: No

Local Forecast

Tonight (4/23): A 30 percent chance of showers and thunderstorms before 7pm. Some of the storms could be severe. Partly cloudy, with a low around 49. Breezy, with a south southwest wind 20 to 25 mph becoming northwest 15 to 20 mph after midnight. Winds could gust as high as 35 mph.

Thursday (4/24): Sunny, with a high near 75. Northwest wind 15 to 20 mph decreasing to 10 to 15 mph in the afternoon. Winds could gust as high as 30 mph.

Thursday Night (4/24): Mostly clear, with a low around 51. West wind 5 to 15 mph becoming south southeast in the evening. Winds could gust as high as 25 mph.

Friday (4/25): Mostly sunny, with a high near 87. Southwest wind around 15 mph, with gusts as high as 25 mph.

Friday Night (4/25): Partly cloudy, with a low around 57. South southwest wind around 15 mph, with gusts as high as 25 mph.

Saturday (4/26): Mostly sunny, with a high near 89. Breezy, with a south southwest wind 15 to 25 mph, with gusts as high as 35 mph.

Saturday Night (4/26): Partly cloudy, with a low around 58. Breezy, with a south wind 20 to 25 mph, with gusts as high as 35 mph.



Current Weather (METAR)

2014/04/23 21:51 KBGD 232151Z AUTO 22018G27KT 10SM SCT110 32/04 A2957 RMK AO2 PK WND 20036/2116 LTG DSNT NE SLP968 T03220044

BORGER HUTCHINSON CO AIRPORT , TX, United States (KBGD) 35-42N 101-24W 927M Apr 23, 2014 - 05:51 PM EDT / 2014.04.23 2151 UTC Wind: from the SW (220 degrees) at 21 MPH (18 KT) gusting to 31 MPH (27 KT):0 Visibility: 10 mile(s):0 Sky conditions: partly cloudy Weather: Lightning observed Temperature: 90.0 F (32.2 C) Dew Point: 39.9 F (4.4 C) Relative Humidity: 17% Pressure (altimeter): 29.57 in. Hg (1001 hPa) ob: KBGD 232151Z AUTO 22018G27KT 10SM SCT110 32/04 A2957 RMK AO2 PK WND 20036/2116 LTG DSNT NE SLP968 T03220044 cycle: 22

Terminal Forecast (TAF)